Deep Seas — ZCPR4 — position and weather

sailwx.info

Track history (hours):
 
Tides and Currents Weather Stations Pressure Air Temp Water Temp Dewpoint Dewpoint Depression Visibility Wind Speed Wind Dir Waves Ship Positions

Deep Seas

Last reported at 2014-Oct-05 06:33 UTC. Time now 2014-Oct-21 02:20 UTC.
Position N 01°12' E 103°35'.
Warning: this ship's position is 15 days out of date.

Length 225 m; draft 9.5 m.

Type: Cargo ship. MMSI: 319138000.

Date/timePositionNaut miles runAvg speedWind from/ knotsBaromVisibWave heightAir tempDewpointWater temp
2014-Oct-05 06:33N 01°12' E 103°35'1111.2
2014-Oct-05 05:33N 01°09' E 103°45'1211.8
2014-Oct-05 04:34N 01°14' E 103°56'3 3.0
2014-Oct-05 03:30N 01°17' E 103°57'0 0.1
2014-Oct-05 02:30N 01°17' E 103°57'0 0.1
2014-Oct-05 01:33N 01°16' E 103°57'0 0.1
2014-Oct-05 00:30N 01°16' E 103°57'0 0.0
2014-Oct-04 23:27N 01°16' E 103°57'0 0.1
2014-Oct-04 22:33N 01°17' E 103°57'0 0.0
2014-Oct-04 21:33N 01°17' E 103°57'0 0.0
2014-Oct-04 20:33N 01°17' E 103°57'0 0.0
2014-Oct-04 19:33N 01°17' E 103°57'0 0.0
2014-Oct-04 18:33N 01°17' E 103°57'0 0.0
2014-Oct-04 17:33N 01°17' E 103°57'2 1.8
2014-Oct-04 16:34N 01°15' E 103°59'2 1.5
2014-Oct-04 15:33N 01°16' E 104°00'5 4.9
2014-Oct-04 14:33N 01°17' E 104°05'5 5.1
2014-Oct-04 13:32N 01°17' E 104°10'  
2014-Sep-28 22:31N 22°33' E 119°43'1010.7
2014-Sep-28 21:33N 22°42' E 119°45'4811.5
2014-Sep-28 17:22N 23°30' E 119°51'8 9.2
2014-Sep-28 16:30N 23°38' E 119°52'9 9.0
2014-Sep-28 15:32N 23°47' E 119°52'10 9.9
2014-Sep-28 14:34N 23°56' E 119°54'3310.9
2014-Sep-28 11:30N 24°26' E 120°10'28911.5
2014-Sep-27 10:16N 28°48' E 122°28'912.1
2014-Sep-27 09:30N 28°56' E 122°33'1712.6
2014-Sep-27 08:11N 29°11' E 122°41'912.8
2014-Sep-27 07:29N 29°19' E 122°45'1412.4
2014-Sep-27 06:24N 29°32' E 122°51'1212.4
2014-Sep-27 05:25N 29°43' E 122°56'1011.7
2014-Sep-27 04:33N 29°52' E 123°01'1310.9
2014-Sep-27 03:22N 30°04' E 123°06'1010.4
2014-Sep-27 02:26N 30°14' E 123°08'1011.0
2014-Sep-27 01:29N 30°24' E 123°11'2211.0
2014-Sep-26 23:31N 30°44' E 123°02'1312.9
2014-Sep-26 22:32N 30°57' E 123°01'1311.9
2014-Sep-26 21:25N 31°03' E 122°47'1513.1
2014-Sep-26 20:18N 31°06' E 122°30'1212.6
2014-Sep-26 19:19N 31°08' E 122°16'1114.6
2014-Sep-26 18:32N 31°14' E 122°04'1212.8
2014-Sep-26 17:33N 31°17' E 121°50'10 9.8
2014-Sep-26 16:33N 31°21' E 121°40'8 8.2
2014-Sep-26 15:33N 31°25' E 121°32'6 6.4
2014-Sep-26 14:34N 31°29' E 121°26'1212.5
2014-Sep-26 13:33N 31°38' E 121°15'1413.7
2014-Sep-26 12:33N 31°46' E 121°03'1211.6
2014-Sep-26 11:33N 31°54' E 120°53'1211.5
2014-Sep-26 10:33N 32°00' E 120°41'1212.2
2014-Sep-26 09:33N 32°02' E 120°27'5 4.4
2014-Sep-26 08:31N 31°58' E 120°24'0 0.0
2014-Sep-26 07:31N 31°58' E 120°24'0 0.0
2014-Sep-26 06:31N 31°58' E 120°24'0 0.0
2014-Sep-26 05:31N 31°58' E 120°24'0 0.0
2014-Sep-26 04:31N 31°58' E 120°24'0 0.0
2014-Sep-26 03:31N 31°58' E 120°24'0 0.0
2014-Sep-26 02:31N 31°58' E 120°24'0 0.0
2014-Sep-26 01:31N 31°58' E 120°24'0 0.0
2014-Sep-26 00:31N 31°58' E 120°24'0 0.0
2014-Sep-25 23:31N 31°58' E 120°24'0 0.0
2014-Sep-25 22:31N 31°58' E 120°24'0 0.0
2014-Sep-25 21:28N 31°58' E 120°24'0 0.0
2014-Sep-25 20:31N 31°58' E 120°24'0 0.0
2014-Sep-25 19:31N 31°58' E 120°24'0 0.0
2014-Sep-25 18:31N 31°58' E 120°24'0 0.0
2014-Sep-25 17:31N 31°58' E 120°24'0 0.0
2014-Sep-25 16:31N 31°58' E 120°24'0 0.0
2014-Sep-25 15:31N 31°58' E 120°24'0 0.0
2014-Sep-25 14:31N 31°58' E 120°24'0 0.0
2014-Sep-25 13:31N 31°58' E 120°24'0 0.0
2014-Sep-25 12:31N 31°58' E 120°24'0 0.0
2014-Sep-25 11:31N 31°58' E 120°24'0 0.0
2014-Sep-25 10:31N 31°58' E 120°24'0 0.0
2014-Sep-25 09:31N 31°58' E 120°24'0 0.0
2014-Sep-25 08:31N 31°58' E 120°24'0 0.0
2014-Sep-25 07:28N 31°58' E 120°24'  
Track history (hours):
 
Tides and Currents Weather Stations Pressure Air Temp Water Temp Dewpoint Dewpoint Depression Visibility Wind Speed Wind Dir Waves Ship Positions

Deep Seas

Last reported at 2014-Oct-05 06:33 UTC. Time now 2014-Oct-21 02:20 UTC.
Position N 01°12' E 103°35'.
Warning: this ship's position is 15 days out of date.

Length 225 m; draft 9.5 m.

Type: Cargo ship. MMSI: 319138000.

Date/timePositionNaut miles runAvg speedWind from/ knotsBaromVisibWave heightAir tempDewpointWater temp
2014-Oct-05 06:33N 01°12' E 103°35'1111.2
2014-Oct-05 05:33N 01°09' E 103°45'1211.8
2014-Oct-05 04:34N 01°14' E 103°56'3 3.0
2014-Oct-05 03:30N 01°17' E 103°57'0 0.1
2014-Oct-05 02:30N 01°17' E 103°57'0 0.1
2014-Oct-05 01:33N 01°16' E 103°57'0 0.1
2014-Oct-05 00:30N 01°16' E 103°57'0 0.0
2014-Oct-04 23:27N 01°16' E 103°57'0 0.1
2014-Oct-04 22:33N 01°17' E 103°57'0 0.0
2014-Oct-04 21:33N 01°17' E 103°57'0 0.0
2014-Oct-04 20:33N 01°17' E 103°57'0 0.0
2014-Oct-04 19:33N 01°17' E 103°57'0 0.0
2014-Oct-04 18:33N 01°17' E 103°57'0 0.0
2014-Oct-04 17:33N 01°17' E 103°57'2 1.8
2014-Oct-04 16:34N 01°15' E 103°59'2 1.5
2014-Oct-04 15:33N 01°16' E 104°00'5 4.9
2014-Oct-04 14:33N 01°17' E 104°05'5 5.1
2014-Oct-04 13:32N 01°17' E 104°10'  
2014-Sep-28 22:31N 22°33' E 119°43'1010.7
2014-Sep-28 21:33N 22°42' E 119°45'4811.5
2014-Sep-28 17:22N 23°30' E 119°51'8 9.2
2014-Sep-28 16:30N 23°38' E 119°52'9 9.0
2014-Sep-28 15:32N 23°47' E 119°52'10 9.9
2014-Sep-28 14:34N 23°56' E 119°54'3310.9
2014-Sep-28 11:30N 24°26' E 120°10'28911.5
2014-Sep-27 10:16N 28°48' E 122°28'912.1
2014-Sep-27 09:30N 28°56' E 122°33'1712.6
2014-Sep-27 08:11N 29°11' E 122°41'912.8
2014-Sep-27 07:29N 29°19' E 122°45'1412.4
2014-Sep-27 06:24N 29°32' E 122°51'1212.4
2014-Sep-27 05:25N 29°43' E 122°56'1011.7
2014-Sep-27 04:33N 29°52' E 123°01'1310.9
2014-Sep-27 03:22N 30°04' E 123°06'1010.4
2014-Sep-27 02:26N 30°14' E 123°08'1011.0
2014-Sep-27 01:29N 30°24' E 123°11'2211.0
2014-Sep-26 23:31N 30°44' E 123°02'1312.9
2014-Sep-26 22:32N 30°57' E 123°01'1311.9
2014-Sep-26 21:25N 31°03' E 122°47'1513.1
2014-Sep-26 20:18N 31°06' E 122°30'1212.6
2014-Sep-26 19:19N 31°08' E 122°16'1114.6
2014-Sep-26 18:32N 31°14' E 122°04'1212.8
2014-Sep-26 17:33N 31°17' E 121°50'10 9.8
2014-Sep-26 16:33N 31°21' E 121°40'8 8.2
2014-Sep-26 15:33N 31°25' E 121°32'6 6.4
2014-Sep-26 14:34N 31°29' E 121°26'1212.5
2014-Sep-26 13:33N 31°38' E 121°15'1413.7
2014-Sep-26 12:33N 31°46' E 121°03'1211.6
2014-Sep-26 11:33N 31°54' E 120°53'1211.5
2014-Sep-26 10:33N 32°00' E 120°41'1212.2
2014-Sep-26 09:33N 32°02' E 120°27'5 4.4
2014-Sep-26 08:31N 31°58' E 120°24'0 0.0
2014-Sep-26 07:31N 31°58' E 120°24'0 0.0
2014-Sep-26 06:31N 31°58' E 120°24'0 0.0
2014-Sep-26 05:31N 31°58' E 120°24'0 0.0
2014-Sep-26 04:31N 31°58' E 120°24'0 0.0
2014-Sep-26 03:31N 31°58' E 120°24'0 0.0
2014-Sep-26 02:31N 31°58' E 120°24'0 0.0
2014-Sep-26 01:31N 31°58' E 120°24'0 0.0
2014-Sep-26 00:31N 31°58' E 120°24'0 0.0
2014-Sep-25 23:31N 31°58' E 120°24'0 0.0
2014-Sep-25 22:31N 31°58' E 120°24'0 0.0
2014-Sep-25 21:28N 31°58' E 120°24'0 0.0
2014-Sep-25 20:31N 31°58' E 120°24'0 0.0
2014-Sep-25 19:31N 31°58' E 120°24'0 0.0
2014-Sep-25 18:31N 31°58' E 120°24'0 0.0
2014-Sep-25 17:31N 31°58' E 120°24'0 0.0
2014-Sep-25 16:31N 31°58' E 120°24'0 0.0
2014-Sep-25 15:31N 31°58' E 120°24'0 0.0
2014-Sep-25 14:31N 31°58' E 120°24'0 0.0
2014-Sep-25 13:31N 31°58' E 120°24'0 0.0
2014-Sep-25 12:31N 31°58' E 120°24'0 0.0
2014-Sep-25 11:31N 31°58' E 120°24'0 0.0
2014-Sep-25 10:31N 31°58' E 120°24'0 0.0
2014-Sep-25 09:31N 31°58' E 120°24'0 0.0
2014-Sep-25 08:31N 31°58' E 120°24'0 0.0
2014-Sep-25 07:28N 31°58' E 120°24'  

Dump ship's entire track history